sensor_id;sensor_type;location;lat;lon;timestamp;P1;durP1;ratioP1;P2;durP2;ratioP2
27383;SDS011;14851;51.166;4.760;2023-01-15T00:02:06;11.13;;;2.00;;
27383;SDS011;14851;51.166;4.760;2023-01-15T00:04:33;7.97;;;1.30;;
27383;SDS011;14851;51.166;4.760;2023-01-15T00:07:02;9.95;;;1.40;;
27383;SDS011;14851;51.166;4.760;2023-01-15T00:09:29;4.93;;;1.48;;
27383;SDS011;14851;51.166;4.760;2023-01-15T00:12:01;10.50;;;1.30;;
27383;SDS011;14851;51.166;4.760;2023-01-15T00:14:31;8.30;;;1.73;;
27383;SDS011;14851;51.166;4.760;2023-01-15T00:17:00;5.72;;;1.45;;
27383;SDS011;14851;51.166;4.760;2023-01-15T00:19:31;7.13;;;1.55;;
27383;SDS011;14851;51.166;4.760;2023-01-15T00:21:58;9.25;;;1.65;;
27383;SDS011;14851;51.166;4.760;2023-01-15T00:24:33;6.72;;;1.33;;
27383;SDS011;14851;51.166;4.760;2023-01-15T00:27:18;10.75;;;1.90;;
27383;SDS011;14851;51.166;4.760;2023-01-15T00:30:11;8.02;;;1.35;;
27383;SDS011;14851;51.166;4.760;2023-01-15T00:32:39;5.70;;;1.35;;
27383;SDS011;14851;51.166;4.760;2023-01-15T00:35:08;8.65;;;1.55;;
27383;SDS011;14851;51.166;4.760;2023-01-15T00:37:40;9.38;;;1.30;;
27383;SDS011;14851;51.166;4.760;2023-01-15T00:40:09;10.48;;;1.50;;
27383;SDS011;14851;51.166;4.760;2023-01-15T00:42:37;6.47;;;1.60;;
27383;SDS011;14851;51.166;4.760;2023-01-15T00:45:04;7.53;;;1.50;;
27383;SDS011;14851;51.166;4.760;2023-01-15T00:47:38;8.93;;;1.50;;
27383;SDS011;14851;51.166;4.760;2023-01-15T00:52:32;9.48;;;1.63;;
27383;SDS011;14851;51.166;4.760;2023-01-15T00:55:01;7.00;;;1.50;;
27383;SDS011;14851;51.166;4.760;2023-01-15T00:57:30;6.10;;;1.40;;
27383;SDS011;14851;51.166;4.760;2023-01-15T00:59:58;8.75;;;1.88;;
27383;SDS011;14851;51.166;4.760;2023-01-15T01:02:24;6.03;;;1.33;;
27383;SDS011;14851;51.166;4.760;2023-01-15T01:04:52;8.55;;;2.28;;
27383;SDS011;14851;51.166;4.760;2023-01-15T01:07:18;11.05;;;1.45;;
27383;SDS011;14851;51.166;4.760;2023-01-15T01:09:44;12.52;;;2.13;;
27383;SDS011;14851;51.166;4.760;2023-01-15T01:12:13;8.10;;;1.48;;
27383;SDS011;14851;51.166;4.760;2023-01-15T01:14:39;10.48;;;2.20;;
27383;SDS011;14851;51.166;4.760;2023-01-15T01:17:05;6.75;;;1.98;;
27383;SDS011;14851;51.166;4.760;2023-01-15T01:19:31;12.80;;;2.17;;
27383;SDS011;14851;51.166;4.760;2023-01-15T01:21:58;8.35;;;2.03;;
27383;SDS011;14851;51.166;4.760;2023-01-15T01:24:24;10.25;;;1.65;;
27383;SDS011;14851;51.166;4.760;2023-01-15T01:26:52;9.32;;;2.25;;
27383;SDS011;14851;51.166;4.760;2023-01-15T01:29:21;8.32;;;2.33;;
27383;SDS011;14851;51.166;4.760;2023-01-15T01:31:48;9.45;;;2.08;;
27383;SDS011;14851;51.166;4.760;2023-01-15T01:34:20;7.78;;;1.85;;
27383;SDS011;14851;51.166;4.760;2023-01-15T01:36:47;9.25;;;1.80;;
27383;SDS011;14851;51.166;4.760;2023-01-15T01:39:14;9.82;;;1.83;;
27383;SDS011;14851;51.166;4.760;2023-01-15T01:41:42;13.52;;;2.35;;
27383;SDS011;14851;51.166;4.760;2023-01-15T01:47:03;9.70;;;2.73;;
27383;SDS011;14851;51.166;4.760;2023-01-15T01:49:33;9.05;;;1.90;;
27383;SDS011;14851;51.166;4.760;2023-01-15T01:52:06;11.02;;;3.67;;
27383;SDS011;14851;51.166;4.760;2023-01-15T01:54:40;8.35;;;1.63;;
27383;SDS011;14851;51.166;4.760;2023-01-15T01:57:08;6.68;;;1.60;;
27383;SDS011;14851;51.166;4.760;2023-01-15T01:59:38;8.20;;;1.95;;
27383;SDS011;14851;51.166;4.760;2023-01-15T02:02:04;10.50;;;1.70;;
27383;SDS011;14851;51.166;4.760;2023-01-15T02:04:31;8.52;;;1.80;;
27383;SDS011;14851;51.166;4.760;2023-01-15T02:06:59;12.52;;;1.70;;
27383;SDS011;14851;51.166;4.760;2023-01-15T02:11:56;9.48;;;1.77;;
27383;SDS011;14851;51.166;4.760;2023-01-15T02:14:47;10.10;;;2.10;;
27383;SDS011;14851;51.166;4.760;2023-01-15T02:17:35;9.05;;;1.88;;
27383;SDS011;14851;51.166;4.760;2023-01-15T02:20:34;15.13;;;2.30;;
27383;SDS011;14851;51.166;4.760;2023-01-15T02:25:53;6.60;;;1.40;;
27383;SDS011;14851;51.166;4.760;2023-01-15T02:28:36;10.55;;;2.63;;
27383;SDS011;14851;51.166;4.760;2023-01-15T02:33:58;9.95;;;1.90;;
27383;SDS011;14851;51.166;4.760;2023-01-15T02:36:32;12.20;;;2.03;;
27383;SDS011;14851;51.166;4.760;2023-01-15T02:39:03;8.32;;;1.77;;
27383;SDS011;14851;51.166;4.760;2023-01-15T02:41:34;12.20;;;1.58;;
27383;SDS011;14851;51.166;4.760;2023-01-15T02:44:05;8.45;;;1.33;;
27383;SDS011;14851;51.166;4.760;2023-01-15T02:46:35;9.52;;;1.85;;
27383;SDS011;14851;51.166;4.760;2023-01-15T02:49:07;8.43;;;1.23;;
27383;SDS011;14851;51.166;4.760;2023-01-15T02:54:45;8.20;;;1.45;;
27383;SDS011;14851;51.166;4.760;2023-01-15T02:57:15;8.77;;;1.40;;
27383;SDS011;14851;51.166;4.760;2023-01-15T02:59:51;9.02;;;1.80;;
27383;SDS011;14851;51.166;4.760;2023-01-15T03:02:24;11.17;;;1.70;;
27383;SDS011;14851;51.166;4.760;2023-01-15T03:05:05;12.05;;;2.13;;
27383;SDS011;14851;51.166;4.760;2023-01-15T03:07:42;8.52;;;1.10;;
27383;SDS011;14851;51.166;4.760;2023-01-15T03:10:19;12.32;;;1.98;;
27383;SDS011;14851;51.166;4.760;2023-01-15T03:13:01;9.90;;;1.92;;
27383;SDS011;14851;51.166;4.760;2023-01-15T03:15:57;9.02;;;1.60;;
27383;SDS011;14851;51.166;4.760;2023-01-15T03:21:47;11.63;;;1.88;;
27383;SDS011;14851;51.166;4.760;2023-01-15T03:26:56;10.05;;;1.85;;
27383;SDS011;14851;51.166;4.760;2023-01-15T03:29:24;12.77;;;2.05;;
27383;SDS011;14851;51.166;4.760;2023-01-15T03:31:55;12.82;;;1.67;;
27383;SDS011;14851;51.166;4.760;2023-01-15T03:34:25;12.32;;;1.77;;
27383;SDS011;14851;51.166;4.760;2023-01-15T03:36:59;11.57;;;1.88;;
27383;SDS011;14851;51.166;4.760;2023-01-15T03:39:26;12.85;;;2.28;;
27383;SDS011;14851;51.166;4.760;2023-01-15T03:50:47;7.82;;;2.08;;
27383;SDS011;14851;51.166;4.760;2023-01-15T03:53:19;8.60;;;1.50;;
27383;SDS011;14851;51.166;4.760;2023-01-15T03:58:48;13.63;;;2.00;;
27383;SDS011;14851;51.166;4.760;2023-01-15T04:01:33;10.38;;;1.52;;
27383;SDS011;14851;51.166;4.760;2023-01-15T04:04:02;11.63;;;2.17;;
27383;SDS011;14851;51.166;4.760;2023-01-15T04:06:31;9.15;;;1.80;;
27383;SDS011;14851;51.166;4.760;2023-01-15T04:09:02;7.35;;;1.52;;
27383;SDS011;14851;51.166;4.760;2023-01-15T04:11:31;7.78;;;1.88;;
27383;SDS011;14851;51.166;4.760;2023-01-15T04:14:03;8.60;;;1.40;;
27383;SDS011;14851;51.166;4.760;2023-01-15T04:16:36;10.07;;;1.50;;
27383;SDS011;14851;51.166;4.760;2023-01-15T04:19:02;8.68;;;1.55;;
27383;SDS011;14851;51.166;4.760;2023-01-15T04:21:31;10.00;;;1.50;;
27383;SDS011;14851;51.166;4.760;2023-01-15T04:23:58;10.00;;;2.15;;
27383;SDS011;14851;51.166;4.760;2023-01-15T04:26:24;10.52;;;1.50;;
27383;SDS011;14851;51.166;4.760;2023-01-15T04:28:51;6.35;;;1.55;;
27383;SDS011;14851;51.166;4.760;2023-01-15T04:31:17;15.07;;;2.03;;
27383;SDS011;14851;51.166;4.760;2023-01-15T04:33:43;11.88;;;1.50;;
27383;SDS011;14851;51.166;4.760;2023-01-15T04:36:10;12.55;;;1.70;;
27383;SDS011;14851;51.166;4.760;2023-01-15T04:38:43;11.52;;;1.73;;
27383;SDS011;14851;51.166;4.760;2023-01-15T04:41:12;14.18;;;1.80;;
27383;SDS011;14851;51.166;4.760;2023-01-15T04:43:57;9.98;;;1.88;;
27383;SDS011;14851;51.166;4.760;2023-01-15T04:46:34;10.38;;;1.80;;
27383;SDS011;14851;51.166;4.760;2023-01-15T04:49:07;11.25;;;1.67;;
27383;SDS011;14851;51.166;4.760;2023-01-15T04:51:36;6.65;;;1.27;;
27383;SDS011;14851;51.166;4.760;2023-01-15T04:54:05;8.40;;;1.58;;
27383;SDS011;14851;51.166;4.760;2023-01-15T04:56:39;6.85;;;1.38;;
27383;SDS011;14851;51.166;4.760;2023-01-15T04:59:07;13.57;;;1.60;;
27383;SDS011;14851;51.166;4.760;2023-01-15T05:01:34;8.38;;;1.50;;
27383;SDS011;14851;51.166;4.760;2023-01-15T05:04:03;8.20;;;2.22;;
27383;SDS011;14851;51.166;4.760;2023-01-15T05:06:31;9.50;;;1.75;;
27383;SDS011;14851;51.166;4.760;2023-01-15T05:08:58;10.45;;;1.85;;
27383;SDS011;14851;51.166;4.760;2023-01-15T05:11:28;12.13;;;1.73;;
27383;SDS011;14851;51.166;4.760;2023-01-15T05:13:57;9.27;;;1.40;;
27383;SDS011;14851;51.166;4.760;2023-01-15T05:16:26;10.32;;;2.13;;
27383;SDS011;14851;51.166;4.760;2023-01-15T05:18:57;7.90;;;1.52;;
27383;SDS011;14851;51.166;4.760;2023-01-15T05:21:32;13.07;;;1.45;;
27383;SDS011;14851;51.166;4.760;2023-01-15T05:24:01;8.05;;;1.70;;
27383;SDS011;14851;51.166;4.760;2023-01-15T05:26:31;9.48;;;1.35;;
27383;SDS011;14851;51.166;4.760;2023-01-15T05:28:58;13.35;;;1.95;;
27383;SDS011;14851;51.166;4.760;2023-01-15T05:31:25;10.35;;;2.00;;
27383;SDS011;14851;51.166;4.760;2023-01-15T05:33:54;8.13;;;1.45;;
27383;SDS011;14851;51.166;4.760;2023-01-15T05:36:23;7.70;;;1.63;;
27383;SDS011;14851;51.166;4.760;2023-01-15T05:38:51;8.25;;;1.50;;
27383;SDS011;14851;51.166;4.760;2023-01-15T05:41:19;10.23;;;1.55;;
27383;SDS011;14851;51.166;4.760;2023-01-15T05:44:08;8.40;;;1.75;;
27383;SDS011;14851;51.166;4.760;2023-01-15T05:46:36;13.18;;;2.10;;
27383;SDS011;14851;51.166;4.760;2023-01-15T05:49:05;15.60;;;2.35;;
27383;SDS011;14851;51.166;4.760;2023-01-15T05:51:37;24.88;;;5.78;;
27383;SDS011;14851;51.166;4.760;2023-01-15T05:54:07;20.98;;;7.05;;
27383;SDS011;14851;51.166;4.760;2023-01-15T05:56:36;6.80;;;1.40;;
27383;SDS011;14851;51.166;4.760;2023-01-15T05:59:06;10.30;;;1.40;;
27383;SDS011;14851;51.166;4.760;2023-01-15T06:01:32;11.93;;;1.73;;
27383;SDS011;14851;51.166;4.760;2023-01-15T06:03:59;9.00;;;1.70;;
27383;SDS011;14851;51.166;4.760;2023-01-15T06:06:27;9.55;;;1.60;;
27383;SDS011;14851;51.166;4.760;2023-01-15T06:08:54;10.50;;;2.05;;
27383;SDS011;14851;51.166;4.760;2023-01-15T06:11:20;10.93;;;1.30;;
27383;SDS011;14851;51.166;4.760;2023-01-15T06:13:49;9.18;;;1.17;;
27383;SDS011;14851;51.166;4.760;2023-01-15T06:16:15;10.05;;;1.50;;
27383;SDS011;14851;51.166;4.760;2023-01-15T06:18:45;10.95;;;2.03;;
27383;SDS011;14851;51.166;4.760;2023-01-15T06:21:12;10.20;;;1.35;;
27383;SDS011;14851;51.166;4.760;2023-01-15T06:23:41;8.77;;;1.45;;
27383;SDS011;14851;51.166;4.760;2023-01-15T06:26:09;12.32;;;1.55;;
27383;SDS011;14851;51.166;4.760;2023-01-15T06:28:43;8.73;;;1.52;;
27383;SDS011;14851;51.166;4.760;2023-01-15T06:31:11;6.18;;;1.35;;
27383;SDS011;14851;51.166;4.760;2023-01-15T06:33:38;6.22;;;1.05;;
27383;SDS011;14851;51.166;4.760;2023-01-15T06:36:15;10.50;;;1.65;;
27383;SDS011;14851;51.166;4.760;2023-01-15T06:38:46;8.88;;;1.38;;
27383;SDS011;14851;51.166;4.760;2023-01-15T06:41:13;7.00;;;1.13;;
27383;SDS011;14851;51.166;4.760;2023-01-15T06:44:03;8.95;;;1.20;;
27383;SDS011;14851;51.166;4.760;2023-01-15T06:46:49;5.07;;;1.05;;
27383;SDS011;14851;51.166;4.760;2023-01-15T06:49:35;7.57;;;1.35;;
27383;SDS011;14851;51.166;4.760;2023-01-15T06:52:03;6.18;;;1.02;;
27383;SDS011;14851;51.166;4.760;2023-01-15T06:54:30;6.45;;;1.38;;
27383;SDS011;14851;51.166;4.760;2023-01-15T06:56:59;5.77;;;1.13;;
27383;SDS011;14851;51.166;4.760;2023-01-15T06:59:25;4.55;;;0.98;;
27383;SDS011;14851;51.166;4.760;2023-01-15T07:01:51;6.30;;;1.20;;
27383;SDS011;14851;51.166;4.760;2023-01-15T07:04:22;5.05;;;0.75;;
27383;SDS011;14851;51.166;4.760;2023-01-15T07:06:51;3.10;;;0.63;;
27383;SDS011;14851;51.166;4.760;2023-01-15T07:09:17;3.42;;;0.68;;
27383;SDS011;14851;51.166;4.760;2023-01-15T07:11:44;7.70;;;0.90;;
27383;SDS011;14851;51.166;4.760;2023-01-15T07:14:17;5.95;;;1.00;;
27383;SDS011;14851;51.166;4.760;2023-01-15T07:16:45;4.50;;;0.70;;
27383;SDS011;14851;51.166;4.760;2023-01-15T07:19:13;8.85;;;1.15;;
27383;SDS011;14851;51.166;4.760;2023-01-15T07:21:40;6.43;;;0.93;;
27383;SDS011;14851;51.166;4.760;2023-01-15T07:24:09;5.65;;;1.10;;
27383;SDS011;14851;51.166;4.760;2023-01-15T07:26:36;4.50;;;0.98;;
27383;SDS011;14851;51.166;4.760;2023-01-15T07:29:03;4.93;;;0.82;;
27383;SDS011;14851;51.166;4.760;2023-01-15T07:31:29;7.57;;;1.08;;
27383;SDS011;14851;51.166;4.760;2023-01-15T07:33:56;7.50;;;0.93;;
27383;SDS011;14851;51.166;4.760;2023-01-15T07:36:23;7.80;;;1.08;;
27383;SDS011;14851;51.166;4.760;2023-01-15T07:38:53;8.15;;;1.60;;
27383;SDS011;14851;51.166;4.760;2023-01-15T07:41:20;8.23;;;1.35;;
27383;SDS011;14851;51.166;4.760;2023-01-15T07:44:10;5.75;;;1.10;;
27383;SDS011;14851;51.166;4.760;2023-01-15T07:46:55;5.85;;;0.88;;
27383;SDS011;14851;51.166;4.760;2023-01-15T07:49:41;9.60;;;1.00;;
27383;SDS011;14851;51.166;4.760;2023-01-15T07:52:14;7.20;;;0.90;;
27383;SDS011;14851;51.166;4.760;2023-01-15T07:54:45;11.60;;;1.05;;
27383;SDS011;14851;51.166;4.760;2023-01-15T07:57:12;10.45;;;1.70;;
27383;SDS011;14851;51.166;4.760;2023-01-15T08:02:08;6.25;;;1.23;;
27383;SDS011;14851;51.166;4.760;2023-01-15T08:04:36;10.13;;;1.48;;
27383;SDS011;14851;51.166;4.760;2023-01-15T08:07:03;7.10;;;1.38;;
27383;SDS011;14851;51.166;4.760;2023-01-15T08:09:30;9.85;;;1.70;;
27383;SDS011;14851;51.166;4.760;2023-01-15T08:11:58;8.50;;;1.33;;
27383;SDS011;14851;51.166;4.760;2023-01-15T08:14:43;12.15;;;2.13;;
27383;SDS011;14851;51.166;4.760;2023-01-15T08:17:28;10.90;;;1.88;;
27383;SDS011;14851;51.166;4.760;2023-01-15T08:19:55;8.50;;;1.95;;
27383;SDS011;14851;51.166;4.760;2023-01-15T08:22:22;14.30;;;1.67;;
27383;SDS011;14851;51.166;4.760;2023-01-15T08:24:49;9.25;;;1.77;;
27383;SDS011;14851;51.166;4.760;2023-01-15T08:27:15;10.65;;;1.60;;
27383;SDS011;14851;51.166;4.760;2023-01-15T08:29:42;6.50;;;2.00;;
27383;SDS011;14851;51.166;4.760;2023-01-15T08:32:12;8.02;;;1.40;;
27383;SDS011;14851;51.166;4.760;2023-01-15T08:34:38;10.55;;;1.55;;
27383;SDS011;14851;51.166;4.760;2023-01-15T08:37:04;7.95;;;1.40;;
27383;SDS011;14851;51.166;4.760;2023-01-15T08:39:31;13.13;;;2.60;;
27383;SDS011;14851;51.166;4.760;2023-01-15T08:41:58;12.95;;;1.90;;
27383;SDS011;14851;51.166;4.760;2023-01-15T08:44:26;9.80;;;1.75;;
27383;SDS011;14851;51.166;4.760;2023-01-15T08:46:53;7.40;;;1.58;;
27383;SDS011;14851;51.166;4.760;2023-01-15T08:49:20;11.82;;;2.33;;
27383;SDS011;14851;51.166;4.760;2023-01-15T08:51:51;12.20;;;1.83;;
27383;SDS011;14851;51.166;4.760;2023-01-15T08:54:19;8.13;;;1.63;;
27383;SDS011;14851;51.166;4.760;2023-01-15T08:56:46;10.15;;;1.63;;
27383;SDS011;14851;51.166;4.760;2023-01-15T08:59:14;7.28;;;1.40;;
27383;SDS011;14851;51.166;4.760;2023-01-15T09:01:43;10.68;;;1.70;;
27383;SDS011;14851;51.166;4.760;2023-01-15T09:04:14;9.70;;;1.63;;
27383;SDS011;14851;51.166;4.760;2023-01-15T09:06:42;11.27;;;1.50;;
27383;SDS011;14851;51.166;4.760;2023-01-15T09:09:09;7.95;;;1.55;;
27383;SDS011;14851;51.166;4.760;2023-01-15T09:11:36;10.98;;;2.35;;
27383;SDS011;14851;51.166;4.760;2023-01-15T09:14:08;7.68;;;1.55;;
27383;SDS011;14851;51.166;4.760;2023-01-15T09:16:38;12.05;;;1.85;;
27383;SDS011;14851;51.166;4.760;2023-01-15T09:19:05;13.55;;;2.67;;
27383;SDS011;14851;51.166;4.760;2023-01-15T09:21:33;9.65;;;2.15;;
27383;SDS011;14851;51.166;4.760;2023-01-15T09:24:00;10.57;;;2.90;;
27383;SDS011;14851;51.166;4.760;2023-01-15T09:26:29;11.93;;;2.47;;
27383;SDS011;14851;51.166;4.760;2023-01-15T09:29:00;10.73;;;3.10;;
27383;SDS011;14851;51.166;4.760;2023-01-15T09:31:27;12.38;;;2.60;;
27383;SDS011;14851;51.166;4.760;2023-01-15T09:33:54;10.30;;;2.40;;
27383;SDS011;14851;51.166;4.760;2023-01-15T09:36:25;12.52;;;2.63;;
27383;SDS011;14851;51.166;4.760;2023-01-15T09:38:55;10.35;;;2.13;;
27383;SDS011;14851;51.166;4.760;2023-01-15T09:41:24;8.35;;;1.70;;
27383;SDS011;14851;51.166;4.760;2023-01-15T09:49:44;7.93;;;1.60;;
27383;SDS011;14851;51.166;4.760;2023-01-15T09:52:34;4.45;;;1.08;;
27383;SDS011;14851;51.166;4.760;2023-01-15T09:55:24;6.95;;;1.90;;
27383;SDS011;14851;51.166;4.760;2023-01-15T09:57:54;10.32;;;1.65;;
27383;SDS011;14851;51.166;4.760;2023-01-15T10:00:27;11.10;;;2.28;;
27383;SDS011;14851;51.166;4.760;2023-01-15T10:03:04;8.07;;;1.60;;
27383;SDS011;14851;51.166;4.760;2023-01-15T10:05:42;7.75;;;1.73;;
27383;SDS011;14851;51.166;4.760;2023-01-15T10:08:23;9.65;;;1.20;;
27383;SDS011;14851;51.166;4.760;2023-01-15T10:11:03;3.85;;;1.02;;
27383;SDS011;14851;51.166;4.760;2023-01-15T10:13:48;6.53;;;1.30;;
27383;SDS011;14851;51.166;4.760;2023-01-15T10:16:21;9.40;;;1.30;;
27383;SDS011;14851;51.166;4.760;2023-01-15T10:18:51;9.18;;;1.10;;
27383;SDS011;14851;51.166;4.760;2023-01-15T10:22:04;3.00;;;0.73;;
27383;SDS011;14851;51.166;4.760;2023-01-15T10:24:11;5.63;;;1.45;;
27383;SDS011;14851;51.166;4.760;2023-01-15T10:34:57;6.57;;;1.45;;
27383;SDS011;14851;51.166;4.760;2023-01-15T10:43:43;6.40;;;0.82;;
27383;SDS011;14851;51.166;4.760;2023-01-15T10:46:35;3.92;;;0.85;;
27383;SDS011;14851;51.166;4.760;2023-01-15T10:49:13;3.08;;;0.90;;
27383;SDS011;14851;51.166;4.760;2023-01-15T10:51:45;4.28;;;1.00;;
27383;SDS011;14851;51.166;4.760;2023-01-15T10:54:26;3.30;;;0.65;;
27383;SDS011;14851;51.166;4.760;2023-01-15T10:57:06;5.78;;;1.00;;
27383;SDS011;14851;51.166;4.760;2023-01-15T11:04:52;4.78;;;0.98;;
27383;SDS011;14851;51.166;4.760;2023-01-15T11:07:19;6.47;;;0.90;;
27383;SDS011;14851;51.166;4.760;2023-01-15T11:09:56;5.82;;;0.85;;
27383;SDS011;14851;51.166;4.760;2023-01-15T11:12:29;5.03;;;1.30;;
27383;SDS011;14851;51.166;4.760;2023-01-15T11:15:32;8.98;;;1.50;;
27383;SDS011;14851;51.166;4.760;2023-01-15T11:18:25;4.97;;;0.98;;
27383;SDS011;14851;51.166;4.760;2023-01-15T11:21:20;7.22;;;1.33;;
27383;SDS011;14851;51.166;4.760;2023-01-15T11:23:52;3.78;;;0.90;;
27383;SDS011;14851;51.166;4.760;2023-01-15T11:26:28;3.70;;;1.20;;
27383;SDS011;14851;51.166;4.760;2023-01-15T11:28:55;5.70;;;1.23;;
27383;SDS011;14851;51.166;4.760;2023-01-15T11:31:35;4.32;;;1.25;;
27383;SDS011;14851;51.166;4.760;2023-01-15T11:36:44;10.02;;;2.25;;
27383;SDS011;14851;51.166;4.760;2023-01-15T11:39:20;9.45;;;1.70;;
27383;SDS011;14851;51.166;4.760;2023-01-15T11:42:25;7.18;;;1.38;;
27383;SDS011;14851;51.166;4.760;2023-01-15T11:45:14;4.65;;;1.15;;
27383;SDS011;14851;51.166;4.760;2023-01-15T11:48:16;5.65;;;1.30;;
27383;SDS011;14851;51.166;4.760;2023-01-15T11:51:06;2.83;;;0.90;;
27383;SDS011;14851;51.166;4.760;2023-01-15T11:53:44;6.57;;;1.80;;
27383;SDS011;14851;51.166;4.760;2023-01-15T11:56:16;5.43;;;1.20;;
27383;SDS011;14851;51.166;4.760;2023-01-15T11:58:46;6.03;;;1.60;;
27383;SDS011;14851;51.166;4.760;2023-01-15T12:01:20;3.38;;;1.00;;
27383;SDS011;14851;51.166;4.760;2023-01-15T12:04:05;6.25;;;1.08;;
27383;SDS011;14851;51.166;4.760;2023-01-15T12:06:47;7.25;;;1.85;;
27383;SDS011;14851;51.166;4.760;2023-01-15T12:18:39;4.93;;;1.15;;
27383;SDS011;14851;51.166;4.760;2023-01-15T12:21:05;5.00;;;1.10;;
27383;SDS011;14851;51.166;4.760;2023-01-15T12:32:48;4.53;;;1.48;;
27383;SDS011;14851;51.166;4.760;2023-01-15T12:35:34;4.53;;;1.83;;
27383;SDS011;14851;51.166;4.760;2023-01-15T12:40:59;5.95;;;1.13;;
27383;SDS011;14851;51.166;4.760;2023-01-15T12:43:29;4.15;;;1.48;;
27383;SDS011;14851;51.166;4.760;2023-01-15T12:46:18;7.18;;;1.20;;
27383;SDS011;14851;51.166;4.760;2023-01-15T12:54:14;3.85;;;0.82;;
27383;SDS011;14851;51.166;4.760;2023-01-15T12:56:59;7.40;;;1.63;;
27383;SDS011;14851;51.166;4.760;2023-01-15T12:59:33;10.70;;;2.13;;
27383;SDS011;14851;51.166;4.760;2023-01-15T13:02:27;7.25;;;1.50;;
27383;SDS011;14851;51.166;4.760;2023-01-15T13:05:18;4.90;;;1.40;;
27383;SDS011;14851;51.166;4.760;2023-01-15T13:10:31;5.65;;;1.30;;
27383;SDS011;14851;51.166;4.760;2023-01-15T13:13:06;2.90;;;1.10;;
27383;SDS011;14851;51.166;4.760;2023-01-15T13:15:36;4.88;;;1.23;;
27383;SDS011;14851;51.166;4.760;2023-01-15T13:20:58;5.63;;;1.13;;
27383;SDS011;14851;51.166;4.760;2023-01-15T13:23:52;7.55;;;1.58;;
27383;SDS011;14851;51.166;4.760;2023-01-15T13:26:38;8.60;;;1.10;;
27383;SDS011;14851;51.166;4.760;2023-01-15T13:31:59;3.10;;;0.80;;
27383;SDS011;14851;51.166;4.760;2023-01-15T13:37:03;6.25;;;1.40;;
27383;SDS011;14851;51.166;4.760;2023-01-15T13:39:38;3.03;;;0.80;;
27383;SDS011;14851;51.166;4.760;2023-01-15T13:42:12;6.90;;;1.50;;
27383;SDS011;14851;51.166;4.760;2023-01-15T13:47:43;6.78;;;1.67;;
27383;SDS011;14851;51.166;4.760;2023-01-15T13:50:22;6.03;;;1.13;;
27383;SDS011;14851;51.166;4.760;2023-01-15T13:58:50;6.53;;;1.23;;
27383;SDS011;14851;51.166;4.760;2023-01-15T14:06:41;3.25;;;0.85;;
27383;SDS011;14851;51.166;4.760;2023-01-15T14:25:53;3.47;;;0.65;;
27383;SDS011;14851;51.166;4.760;2023-01-15T14:36:38;4.10;;;1.05;;
27383;SDS011;14851;51.166;4.760;2023-01-15T14:42:12;1.48;;;0.50;;
27383;SDS011;14851;51.166;4.760;2023-01-15T14:45:01;2.58;;;0.57;;
27383;SDS011;14851;51.166;4.760;2023-01-15T14:47:35;6.45;;;1.33;;
27383;SDS011;14851;51.166;4.760;2023-01-15T14:52:49;7.40;;;2.53;;
27383;SDS011;14851;51.166;4.760;2023-01-15T14:55:26;3.67;;;0.82;;
27383;SDS011;14851;51.166;4.760;2023-01-15T14:58:03;3.72;;;0.80;;
27383;SDS011;14851;51.166;4.760;2023-01-15T15:00:41;3.25;;;0.85;;
27383;SDS011;14851;51.166;4.760;2023-01-15T15:03:18;3.65;;;1.52;;
27383;SDS011;14851;51.166;4.760;2023-01-15T15:05:50;5.18;;;1.75;;
27383;SDS011;14851;51.166;4.760;2023-01-15T15:08:20;6.70;;;1.33;;
27383;SDS011;14851;51.166;4.760;2023-01-15T15:10:59;7.50;;;1.52;;
27383;SDS011;14851;51.166;4.760;2023-01-15T15:13:52;3.85;;;1.00;;
27383;SDS011;14851;51.166;4.760;2023-01-15T15:16:26;6.07;;;1.75;;
27383;SDS011;14851;51.166;4.760;2023-01-15T15:19:10;2.83;;;0.70;;
27383;SDS011;14851;51.166;4.760;2023-01-15T15:21:50;6.28;;;1.23;;
27383;SDS011;14851;51.166;4.760;2023-01-15T15:24:20;5.63;;;0.90;;
27383;SDS011;14851;51.166;4.760;2023-01-15T15:26:51;3.45;;;0.90;;
27383;SDS011;14851;51.166;4.760;2023-01-15T15:29:19;4.32;;;1.10;;
27383;SDS011;14851;51.166;4.760;2023-01-15T15:34:16;5.70;;;1.73;;
27383;SDS011;14851;51.166;4.760;2023-01-15T15:37:11;5.25;;;1.08;;
27383;SDS011;14851;51.166;4.760;2023-01-15T15:42:46;2.30;;;0.70;;
27383;SDS011;14851;51.166;4.760;2023-01-15T15:45:53;4.05;;;1.08;;
27383;SDS011;14851;51.166;4.760;2023-01-15T15:48:39;7.05;;;1.30;;
27383;SDS011;14851;51.166;4.760;2023-01-15T15:54:01;4.85;;;1.10;;
27383;SDS011;14851;51.166;4.760;2023-01-15T15:56:36;2.40;;;0.85;;
27383;SDS011;14851;51.166;4.760;2023-01-15T15:59:14;4.35;;;1.00;;
27383;SDS011;14851;51.166;4.760;2023-01-15T16:02:24;4.85;;;0.93;;
27383;SDS011;14851;51.166;4.760;2023-01-15T16:04:59;2.42;;;0.95;;
27383;SDS011;14851;51.166;4.760;2023-01-15T16:07:45;4.75;;;1.00;;
27383;SDS011;14851;51.166;4.760;2023-01-15T16:10:13;3.65;;;1.10;;
27383;SDS011;14851;51.166;4.760;2023-01-15T16:12:44;4.47;;;1.10;;
27383;SDS011;14851;51.166;4.760;2023-01-15T16:15:17;5.13;;;0.90;;
27383;SDS011;14851;51.166;4.760;2023-01-15T16:17:56;3.58;;;1.15;;
27383;SDS011;14851;51.166;4.760;2023-01-15T16:20:24;4.93;;;1.45;;
27383;SDS011;14851;51.166;4.760;2023-01-15T16:22:54;2.67;;;1.13;;
27383;SDS011;14851;51.166;4.760;2023-01-15T16:25:26;3.50;;;1.00;;
27383;SDS011;14851;51.166;4.760;2023-01-15T16:28:01;1.95;;;1.08;;
27383;SDS011;14851;51.166;4.760;2023-01-15T16:30:28;4.00;;;0.77;;
27383;SDS011;14851;51.166;4.760;2023-01-15T16:32:59;4.00;;;1.10;;
27383;SDS011;14851;51.166;4.760;2023-01-15T16:35:32;2.58;;;0.90;;
27383;SDS011;14851;51.166;4.760;2023-01-15T16:38:01;2.47;;;0.70;;
27383;SDS011;14851;51.166;4.760;2023-01-15T16:40:37;0.93;;;0.52;;
27383;SDS011;14851;51.166;4.760;2023-01-15T16:43:22;2.85;;;1.00;;
27383;SDS011;14851;51.166;4.760;2023-01-15T16:45:58;2.97;;;0.70;;
27383;SDS011;14851;51.166;4.760;2023-01-15T16:48:32;3.63;;;1.08;;
27383;SDS011;14851;51.166;4.760;2023-01-15T16:51:48;2.72;;;0.65;;
27383;SDS011;14851;51.166;4.760;2023-01-15T16:54:00;1.40;;;0.70;;
27383;SDS011;14851;51.166;4.760;2023-01-15T16:59:15;1.35;;;0.73;;
27383;SDS011;14851;51.166;4.760;2023-01-15T17:01:43;2.67;;;0.80;;
27383;SDS011;14851;51.166;4.760;2023-01-15T17:04:33;4.38;;;0.98;;
27383;SDS011;14851;51.166;4.760;2023-01-15T17:07:05;3.33;;;0.88;;
27383;SDS011;14851;51.166;4.760;2023-01-15T17:09:43;3.08;;;0.90;;
27383;SDS011;14851;51.166;4.760;2023-01-15T17:14:52;2.10;;;0.70;;
27383;SDS011;14851;51.166;4.760;2023-01-15T17:19:54;3.75;;;0.80;;
27383;SDS011;14851;51.166;4.760;2023-01-15T17:22:24;4.50;;;1.10;;
27383;SDS011;14851;51.166;4.760;2023-01-15T17:24:58;3.83;;;0.80;;
27383;SDS011;14851;51.166;4.760;2023-01-15T17:27:27;4.65;;;1.02;;
27383;SDS011;14851;51.166;4.760;2023-01-15T17:29:55;2.65;;;0.88;;
27383;SDS011;14851;51.166;4.760;2023-01-15T17:32:30;4.22;;;1.20;;
27383;SDS011;14851;51.166;4.760;2023-01-15T17:35:00;4.07;;;1.02;;
27383;SDS011;14851;51.166;4.760;2023-01-15T17:37:27;3.58;;;1.20;;
27383;SDS011;14851;51.166;4.760;2023-01-15T17:39:53;4.68;;;1.40;;
27383;SDS011;14851;51.166;4.760;2023-01-15T17:42:19;5.07;;;0.75;;
27383;SDS011;14851;51.166;4.760;2023-01-15T17:44:47;2.90;;;0.90;;
27383;SDS011;14851;51.166;4.760;2023-01-15T17:47:13;2.58;;;0.90;;
27383;SDS011;14851;51.166;4.760;2023-01-15T17:49:42;4.57;;;1.05;;
27383;SDS011;14851;51.166;4.760;2023-01-15T17:52:12;3.25;;;0.90;;
27383;SDS011;14851;51.166;4.760;2023-01-15T17:54:43;2.53;;;0.70;;
27383;SDS011;14851;51.166;4.760;2023-01-15T17:57:28;1.77;;;0.90;;
27383;SDS011;14851;51.166;4.760;2023-01-15T18:00:12;2.97;;;0.65;;
27383;SDS011;14851;51.166;4.760;2023-01-15T18:02:58;3.97;;;1.00;;